Time;durP1;ratioP1;P1;durP2;ratioP2;P2;SDS_P1;SDS_P2;PMS_P1;PMS_P2;Temp;Humidity;BMP_temperature;BMP_pressure;BME280_temperature;BME280_humidity;BME280_pressure;Samples;Min_cycle;Max_cycle;Signal;HPM_P1;HPM_P2
2021/07/25 00:01:31;;;;;;;18.98;13.20;;;;;;;20.82;62.48;98763.73;261946;1092;115162;-70
2021/07/25 00:06:37;;;;;;;18.93;13.17;;;;;;;20.75;62.71;98768.11;262238;1093;114831;-73
2021/07/25 00:11:42;;;;;;;20.90;13.53;;;;;;;20.70;62.71;98775.90;263285;1092;115102;-71
2021/07/25 00:16:46;;;;;;;17.05;12.05;;;;;;;20.61;62.85;98776.88;262348;1092;115199;-72
2021/07/25 00:21:50;;;;;;;;;;;;;;;20.54;62.97;98782.95;261291;1092;114903;-72
2021/07/25 00:26:56;;;;;;;15.35;12.53;;;;;;;20.50;63.22;98789.70;262762;1092;103087;-70
2021/07/25 00:32:09;;;;;;;19.87;13.97;;;;;;;20.48;63.36;98778.19;262284;1092;115651;-70
2021/07/25 00:37:14;;;;;;;20.67;13.87;;;;;;;20.45;63.32;98770.41;263859;1093;115335;-68
2021/07/25 00:42:17;;;;;;;15.57;12.73;;;;;;;20.40;63.67;98764.63;263797;1093;115361;-69
2021/07/25 00:47:21;;;;;;;16.98;11.50;;;;;;;20.35;63.65;98775.11;263012;1092;115090;-68
2021/07/25 00:52:25;;;;;;;17.50;12.93;;;;;;;20.33;63.79;98774.41;263487;1092;116260;-71
2021/07/25 00:57:28;;;;;;;15.80;12.68;;;;;;;20.33;63.90;98761.73;263470;1093;115484;-70
2021/07/25 01:02:41;;;;;;;17.30;13.50;;;;;;;20.32;64.02;98754.65;262784;1093;114881;-71
2021/07/25 01:07:53;;;;;;;17.43;13.23;;;;;;;20.27;63.76;98754.28;262479;1093;114817;-70
2021/07/25 01:13:15;;;;;;;19.95;13.10;;;;;;;20.17;63.97;98756.27;261307;1093;114931;-70
2021/07/25 01:18:19;;;;;;;17.50;12.00;;;;;;;20.06;64.11;98749.31;263807;1093;115059;-72
2021/07/25 01:23:24;;;;;;;14.15;10.98;;;;;;;20.03;63.98;98756.89;263654;1093;115308;-69
2021/07/25 01:28:34;;;;;;;17.77;13.43;;;;;;;19.98;64.33;98746.59;262385;1092;114858;-73
2021/07/25 01:33:42;;;;;;;20.53;14.80;;;;;;;19.95;64.33;98749.61;263702;1093;115499;-71
2021/07/25 01:38:48;;;;;;;22.00;14.50;;;;;;;19.91;64.34;98742.00;263610;1092;114755;-70
2021/07/25 01:43:56;;;;;;;18.90;13.27;;;;;;;19.83;64.24;98745.48;261292;1092;114911;-70
2021/07/25 01:49:01;;;;;;;17.73;12.60;;;;;;;19.79;64.53;98741.42;261439;1093;114857;-70
2021/07/25 01:54:06;;;;;;;16.28;12.48;;;;;;;19.76;64.65;98742.58;262948;1091;115016;-73
2021/07/25 01:59:10;;;;;;;18.68;12.35;;;;;;;19.74;64.60;98739.22;262505;1092;114943;-69
2021/07/25 02:04:14;;;;;;;16.50;12.98;;;;;;;19.70;64.73;98745.95;263451;1093;115371;-71
2021/07/25 02:09:19;;;;;;;17.33;14.03;;;;;;;19.66;64.71;98768.02;261903;1093;114780;-69
2021/07/25 02:14:23;;;;;;;;;;;;;;;19.59;64.95;98765.06;263740;1092;114699;-71
2021/07/25 02:19:28;;;;;;;19.60;13.63;;;;;;;19.51;64.99;98765.03;263343;1093;103252;-69
2021/07/25 02:24:35;;;;;;;16.87;13.33;;;;;;;19.49;65.26;98761.63;261352;1093;114920;-72
2021/07/25 02:29:39;;;;;;;17.20;11.73;;;;;;;19.46;65.60;98756.55;262701;1093;115139;-69
2021/07/25 02:34:43;;;;;;;17.05;12.88;;;;;;;19.47;65.49;98753.70;263032;1093;115754;-71
2021/07/25 02:39:47;;;;;;;20.23;13.33;;;;;;;19.51;65.36;98757.77;261340;1093;114785;-71
2021/07/25 02:44:52;;;;;;;19.80;13.68;;;;;;;19.52;65.56;98751.36;262697;1092;115125;-72
2021/07/25 02:49:56;;;;;;;19.25;14.00;;;;;;;19.49;65.60;98751.67;262494;1092;115899;-68
2021/07/25 02:55:01;;;;;;;17.70;12.63;;;;;;;19.47;65.59;98747.47;263034;1093;115218;-69
2021/07/25 03:00:10;;;;;;;15.23;11.77;;;;;;;19.47;65.40;98753.70;262314;1093;114955;-68
2021/07/25 03:05:14;;;;;;;19.40;13.03;;;;;;;19.47;65.28;98744.77;261028;1092;115479;-69
2021/07/25 03:10:19;;;;;;;;;;;;;;;19.45;65.45;98741.37;263262;1093;115518;-69
2021/07/25 03:15:23;;;;;;;18.83;12.00;;;;;;;19.35;65.23;98741.47;263558;1093;102014;-69
2021/07/25 03:20:28;;;;;;;23.83;13.37;;;;;;;19.28;65.30;98735.86;263142;1092;115192;-72
2021/07/25 03:25:33;;;;;;;19.90;12.50;;;;;;;19.21;65.39;98744.75;263597;1092;115397;-70
2021/07/25 03:30:37;;;;;;;15.75;11.78;;;;;;;19.18;65.54;98745.90;263697;1092;115400;-71
2021/07/25 03:35:41;;;;;;;17.68;12.90;;;;;;;19.20;65.50;98740.36;262656;1093;114871;-68
2021/07/25 03:40:45;;;;;;;18.13;13.33;;;;;;;19.22;65.62;98752.67;262006;1092;115202;-71
2021/07/25 03:45:49;;;;;;;18.43;13.23;;;;;;;19.21;65.97;98745.59;263716;1093;115913;-75
2021/07/25 03:50:53;;;;;;;21.63;14.40;;;;;;;19.20;66.15;98767.34;263616;1092;115364;-69
2021/07/25 03:56:00;;;;;;;20.13;13.53;;;;;;;19.20;66.39;98760.09;261159;1092;114869;-69
2021/07/25 04:01:04;;;;;;;18.17;12.97;;;;;;;19.27;66.27;98771.10;262855;1093;115330;-71
2021/07/25 04:06:09;;;;;;;23.73;14.63;;;;;;;19.34;66.59;98770.31;262706;1093;114973;-71
2021/07/25 04:11:17;;;;;;;;;;;;;;;19.38;66.49;98779.78;262476;1092;115571;-70
2021/07/25 04:16:21;;;;;;;21.13;14.70;;;;;;;19.41;66.87;98778.63;263353;1092;102314;-72
2021/07/25 04:21:26;;;;;;;24.30;15.25;;;;;;;19.44;66.84;98781.01;263614;1092;115677;-70
2021/07/25 04:26:29;;;;;;;;;;;;;;;19.50;66.65;98785.78;263649;1091;115447;-70
2021/07/25 04:31:33;;;;;;;19.87;13.37;;;;;;;19.58;67.02;98783.13;263420;1093;102255;-71
2021/07/25 04:36:39;;;;;;;19.75;14.08;;;;;;;19.68;66.77;98785.75;263108;1093;115051;-71
2021/07/25 04:41:52;;;;;;;21.07;13.50;;;;;;;19.78;66.99;98780.25;262349;1092;114815;-71
2021/07/25 04:47:01;;;;;;;22.37;15.27;;;;;;;19.83;66.63;98777.89;263455;1092;115242;-71
2021/07/25 04:52:07;;;;;;;21.03;13.63;;;;;;;19.87;66.38;98773.89;262763;1091;115078;-70
2021/07/25 04:57:14;;;;;;;22.73;14.80;;;;;;;19.93;67.05;98777.78;262257;1092;115416;-68
2021/07/25 05:02:20;;;;;;;21.70;14.03;;;;;;;19.97;66.48;98771.92;263698;1091;116035;-70
2021/07/25 05:07:26;;;;;;;15.98;13.63;;;;;;;20.01;66.52;98770.58;263890;1092;115535;-70
2021/07/25 05:12:38;;;;;;;18.83;14.35;;;;;;;20.03;66.31;98756.89;263360;1093;115870;-69
2021/07/25 05:17:56;;;;;;;16.43;13.07;;;;;;;20.02;66.14;98758.75;263774;1092;116544;-69
2021/07/25 05:23:14;;;;;;;20.80;12.37;;;;;;;20.04;66.11;98759.45;263614;1092;115633;-70
2021/07/25 05:28:20;;;;;;;18.00;11.63;;;;;;;20.08;66.38;98754.57;263747;1092;115681;-68
2021/07/25 05:33:24;;;;;;;46.50;35.80;;;;;;;20.64;67.57;98754.92;262877;1092;115382;-69
2021/07/25 05:38:27;;;;;;;30.25;22.95;;;;;;;21.06;67.29;98743.98;263578;1093;115399;-71
2021/07/25 05:43:31;;;;;;;23.78;16.30;;;;;;;21.45;66.90;98746.84;263665;1092;115504;-68
2021/07/25 05:48:34;;;;;;;46.03;35.80;;;;;;;21.66;65.64;98750.86;263916;1092;116409;-69
2021/07/25 05:53:40;;;;;;;18.23;15.93;;;;;;;21.78;64.66;98751.36;263426;1093;115267;-69
2021/07/25 05:58:43;;;;;;;214.60;173.35;;;;;;;21.80;65.10;98750.14;263691;1092;115376;-67
2021/07/25 06:03:47;;;;;;;23.60;15.43;;;;;;;21.79;64.79;98743.04;263373;1092;115547;-69
2021/07/25 06:08:51;;;;;;;37.20;27.78;;;;;;;21.80;64.65;98752.84;263826;1093;115212;-66
2021/07/25 06:13:56;;;;;;;28.30;19.70;;;;;;;21.83;64.75;98749.80;263262;1092;114889;-71
2021/07/25 06:19:00;;;;;;;19.77;13.33;;;;;;;21.94;64.45;98752.16;263678;1092;115249;-69
2021/07/25 06:24:04;;;;;;;34.98;27.13;;;;;;;22.03;64.68;98743.98;263664;1093;115589;-69
2021/07/25 06:29:10;;;;;;;33.03;24.17;;;;;;;22.19;64.44;98747.50;263611;1093;116431;-69
2021/07/25 06:34:13;;;;;;;20.50;14.15;;;;;;;22.28;64.03;98751.03;263796;1093;115394;-68
2021/07/25 06:39:17;;;;;;;21.25;16.50;;;;;;;22.36;64.23;98752.84;263593;1092;116417;-72
2021/07/25 06:44:20;;;;;;;18.53;14.30;;;;;;;22.43;64.01;98749.23;263202;1092;115237;-69
2021/07/25 06:49:26;;;;;;;19.78;12.65;;;;;;;22.48;63.64;98742.42;263838;1092;115331;-71
2021/07/25 06:54:32;;;;;;;16.13;12.43;;;;;;;22.58;64.03;98735.74;263409;1092;115398;-69
2021/07/25 06:59:35;;;;;;;19.07;11.93;;;;;;;22.73;63.69;98749.40;263798;1093;115121;-70
2021/07/25 07:04:39;;;;;;;21.08;13.15;;;;;;;22.84;63.69;98751.69;263144;1092;115355;-70
2021/07/25 07:09:43;;;;;;;22.20;13.15;;;;;;;22.93;63.33;98743.50;263282;1093;115816;-71
2021/07/25 07:14:46;;;;;;;17.65;13.00;;;;;;;23.02;63.26;98739.70;263831;1093;115179;-72
2021/07/25 07:19:50;;;;;;;22.70;13.48;;;;;;;23.10;63.18;98735.07;263776;1093;114999;-69
2021/07/25 07:24:54;;;;;;;18.95;12.98;;;;;;;23.18;63.13;98736.02;263850;1093;115145;-68
2021/07/25 07:30:00;;;;;;;;;;;;;;;23.25;63.01;98732.38;262705;1092;114966;-71
2021/07/25 07:35:09;;;;;;;21.40;14.03;;;;;;;23.33;63.12;98745.88;261863;1092;103008;-69
2021/07/25 07:40:19;;;;;;;18.27;12.30;;;;;;;23.43;62.63;98739.34;261407;1092;115016;-66
2021/07/25 07:45:29;;;;;;;21.43;11.77;;;;;;;23.55;62.71;98735.99;262122;1092;115019;-69
2021/07/25 07:50:36;;;;;;;26.77;14.10;;;;;;;23.70;62.86;98727.88;262610;1092;114837;-68
2021/07/25 07:55:41;;;;;;;20.53;13.50;;;;;;;23.87;62.70;98727.70;263079;1092;115370;-68
2021/07/25 08:00:45;;;;;;;20.73;11.88;;;;;;;24.00;62.53;98719.72;263844;1092;115612;-71
2021/07/25 08:05:49;;;;;;;19.23;11.73;;;;;;;24.11;62.37;98726.55;263250;1092;115149;-71
2021/07/25 08:10:52;;;;;;;15.50;11.25;;;;;;;24.19;62.02;98730.02;262922;1093;115184;-69
2021/07/25 08:15:58;;;;;;;16.67;11.93;;;;;;;24.26;62.05;98725.50;263215;1093;115354;-71
2021/07/25 08:21:04;;;;;;;17.30;12.03;;;;;;;24.34;61.93;98721.82;261212;1091;115130;-70
2021/07/25 08:26:08;;;;;;;17.20;11.83;;;;;;;24.40;61.46;98721.09;263521;1093;115465;-70
2021/07/25 08:31:11;;;;;;;17.53;10.60;;;;;;;24.42;61.20;98723.61;263623;1093;114838;-67
2021/07/25 08:36:15;;;;;;;23.93;11.55;;;;;;;24.53;61.02;98720.41;263536;1092;115440;-71
2021/07/25 08:41:35;;;;;;;18.08;12.90;;;;;;;24.68;60.69;98723.91;263666;1093;115433;-67
2021/07/25 08:46:39;;;;;;;11.33;8.77;;;;;;;24.80;60.20;98724.25;263639;1092;115710;-67
2021/07/25 08:51:52;;;;;;;;;;;;;;;24.91;59.93;98722.89;263760;1091;115110;-68
2021/07/25 08:57:02;;;;;;;25.30;20.03;;;;;;;25.01;59.96;98729.69;263788;1093;101196;-68
2021/07/25 09:02:16;;;;;;;11.47;9.50;;;;;;;25.11;59.67;98723.07;262669;1092;114863;-72
2021/07/25 09:07:23;;;;;;;32.73;9.65;;;;;;;25.15;59.20;98724.39;262195;1092;115027;-71
2021/07/25 09:12:30;;;;;;;24.43;11.17;;;;;;;25.17;58.90;98725.02;262273;1092;114736;-70
2021/07/25 09:17:40;;;;;;;21.33;9.70;;;;;;;25.20;59.04;98725.49;261482;1092;115505;-72
2021/07/25 09:22:49;;;;;;;63.63;50.27;;;;;;;25.29;58.73;98731.63;261498;1091;114740;-73
2021/07/25 09:27:56;;;;;;;15.83;11.40;;;;;;;25.35;58.54;98728.12;263130;1092;115022;-72
2021/07/25 09:33:00;;;;;;;10.57;7.43;;;;;;;25.40;58.13;98733.80;262051;1092;115528;-70
2021/07/25 09:38:04;;;;;;;20.67;8.77;;;;;;;25.43;57.30;98732.57;262262;1093;115243;-67
2021/07/25 09:43:25;;;;;;;15.00;8.10;;;;;;;25.45;57.37;98736.78;261550;1092;114847;-69
2021/07/25 09:48:41;;;;;;;151.60;118.80;;;;;;;25.46;56.26;98740.35;261555;1092;114623;-68
2021/07/25 09:53:53;;;;;;;13.50;11.03;;;;;;;25.49;56.40;98731.78;261752;1092;116558;-69
2021/07/25 09:58:59;;;;;;;9.60;7.23;;;;;;;25.55;56.04;98733.72;261673;1093;114959;-68
2021/07/25 10:04:17;;;;;;;9.60;6.50;;;;;;;25.57;55.72;98728.89;261489;1092;114571;-67
2021/07/25 10:09:26;;;;;;;9.37;6.53;;;;;;;25.61;55.11;98723.88;261241;1092;115059;-70
2021/07/25 10:14:36;;;;;;;8.73;6.53;;;;;;;25.64;54.45;98732.50;261711;1092;115039;-70
2021/07/25 10:19:46;;;;;;;9.73;6.50;;;;;;;25.66;54.70;98733.16;261632;1092;115399;-69
2021/07/25 10:25:00;;;;;;;9.60;6.67;;;;;;;25.68;54.73;98731.09;261587;1092;114313;-69
2021/07/25 10:30:09;;;;;;;8.17;6.67;;;;;;;25.67;55.28;98723.09;261946;1093;114736;-69
2021/07/25 10:35:24;;;;;;;303.60;194.53;;;;;;;25.66;54.69;98715.97;261823;1092;114984;-70
2021/07/25 10:40:38;;;;;;;26.10;19.27;;;;;;;25.63;54.52;98724.54;262071;1093;115743;-68
2021/07/25 10:46:16;;;;;;;13.87;10.17;;;;;;;25.59;54.49;98726.83;261528;1092;114800;-68
2021/07/25 10:51:30;;;;;;;22.90;16.00;;;;;;;25.56;54.16;98732.67;261401;1091;114960;-69
2021/07/25 10:57:04;;;;;;;14.20;8.13;;;;;;;25.54;54.36;98742.91;261712;1093;114758;-69
2021/07/25 11:02:22;;;;;;;9.80;8.63;;;;;;;25.53;54.45;98752.14;261862;1092;114564;-68
2021/07/25 11:07:33;;;;;;;19.67;16.27;;;;;;;25.48;54.74;98755.47;262098;1092;114505;-72
2021/07/25 11:12:50;;;;;;;12.63;9.10;;;;;;;25.45;54.62;98766.77;261575;1092;114690;-72
2021/07/25 11:18:05;;;;;;;14.87;10.43;;;;;;;25.38;54.16;98759.58;261537;1092;114864;-74
2021/07/25 11:23:35;;;;;;;13.55;9.40;;;;;;;25.28;53.83;98776.26;261626;1092;115058;-73
2021/07/25 11:28:47;;;;;;;13.00;9.53;;;;;;;25.16;54.12;98773.20;261763;1093;114671;-71
2021/07/25 11:33:52;;;;;;;14.83;9.60;;;;;;;25.06;54.01;98774.54;261662;1092;115378;-69
2021/07/25 11:39:07;;;;;;;311.23;223.47;;;;;;;24.96;54.37;98785.75;261595;1092;114971;-71
2021/07/25 11:44:14;;;;;;;59.57;43.60;;;;;;;24.88;54.70;98805.78;261156;1092;115354;-72
2021/07/25 11:49:33;;;;;;;;;;;;;;;24.79;55.07;98824.09;261633;1092;115201;-71
2021/07/25 11:54:43;;;;;;;25.45;16.95;;;;;;;24.71;55.23;98842.44;261837;1092;105261;-71
2021/07/25 12:00:02;;;;;;;24.47;15.13;;;;;;;24.67;55.94;98833.81;261581;1092;114814;-70
2021/07/25 12:05:13;;;;;;;;;;;;;;;24.64;56.57;98836.08;261921;1092;115424;-69
2021/07/25 12:10:34;;;;;;;28.67;15.27;;;;;;;24.59;57.38;98827.62;261822;1091;102905;-69
2021/07/25 12:15:39;;;;;;;23.60;14.20;;;;;;;24.61;57.63;98829.13;261990;1093;115677;-70
2021/07/25 12:20:44;;;;;;;17.57;12.20;;;;;;;24.64;57.87;98828.75;261974;1093;115021;-71
2021/07/25 12:25:48;;;;;;;;;;;;;;;24.60;57.43;98821.16;261372;1092;114746;-71
2021/07/25 12:31:10;;;;;;;18.53;10.07;;;;;;;24.51;57.51;98828.58;261649;1092;102582;-68
2021/07/25 12:36:20;;;;;;;13.07;10.63;;;;;;;24.45;57.72;98829.33;261679;1092;119118;-68
2021/07/25 12:41:42;;;;;;;14.20;11.07;;;;;;;24.41;57.75;98833.47;261848;1091;118002;-68
2021/07/25 12:46:50;;;;;;;13.40;10.37;;;;;;;24.40;57.90;98829.03;261471;1092;117468;-69
2021/07/25 12:51:58;;;;;;;16.67;11.40;;;;;;;24.40;57.76;98829.03;262180;1092;118906;-69
2021/07/25 12:57:02;;;;;;;44.20;36.83;;;;;;;24.38;57.97;98823.77;261454;1092;114807;-68
2021/07/25 13:07:37;;;;;;;55.70;43.47;;;;;;;24.29;58.11;98820.32;261806;1093;114952;-70
2021/07/25 13:12:45;;;;;;;291.40;246.87;;;;;;;24.28;58.36;98826.77;261833;1092;115369;-69
2021/07/25 13:17:53;;;;;;;44.95;35.35;;;;;;;24.34;58.80;98800.70;262098;1092;115783;-69
2021/07/25 13:23:01;;;;;;;44.03;33.60;;;;;;;24.45;58.75;98815.73;261280;1092;115427;-68
2021/07/25 13:28:08;;;;;;;32.73;26.10;;;;;;;24.55;58.95;98805.39;261873;1091;115012;-69
2021/07/25 13:33:14;;;;;;;27.30;21.73;;;;;;;24.65;58.90;98808.66;261835;1092;114982;-68
2021/07/25 13:38:25;;;;;;;24.67;18.50;;;;;;;24.73;58.90;98813.16;261711;1092;114839;-69
2021/07/25 13:43:48;;;;;;;27.27;17.17;;;;;;;24.73;58.88;98802.28;261690;1091;115774;-69
2021/07/25 13:49:01;;;;;;;19.10;13.83;;;;;;;24.69;58.96;98801.78;261879;1092;114968;-68
2021/07/25 13:54:11;;;;;;;18.53;13.73;;;;;;;24.64;58.96;98796.09;261862;1092;114848;-69
2021/07/25 13:59:21;;;;;;;16.30;13.50;;;;;;;24.59;59.19;98793.08;261123;1092;115876;-69
2021/07/25 14:04:41;;;;;;;11.17;9.70;;;;;;;24.51;58.96;98793.20;261472;1092;115608;-68
2021/07/25 14:09:47;;;;;;;14.37;10.73;;;;;;;24.44;58.55;98786.84;261466;1092;116468;-67
2021/07/25 14:14:52;;;;;;;12.00;10.43;;;;;;;24.39;58.73;98772.92;261386;1092;115055;-66
2021/07/25 14:19:58;;;;;;;13.18;11.73;;;;;;;24.33;59.24;98781.86;262083;1092;115093;-67
2021/07/25 14:25:16;;;;;;;12.37;11.07;;;;;;;24.28;59.72;98777.81;263567;1093;116756;-67
2021/07/25 14:30:21;;;;;;;15.60;11.05;;;;;;;24.31;60.05;98782.03;263364;1092;115822;-67
2021/07/25 14:35:24;;;;;;;14.53;12.00;;;;;;;24.35;59.87;98782.50;263496;1092;117735;-66
2021/07/25 14:40:28;;;;;;;24.00;17.33;;;;;;;24.39;60.45;98775.64;263664;1093;116042;-67
2021/07/25 14:45:32;;;;;;;19.78;17.23;;;;;;;24.43;60.72;98768.84;263761;1092;116080;-67
2021/07/25 14:50:36;;;;;;;19.00;15.08;;;;;;;24.46;61.03;98765.74;262000;1092;115531;-67
2021/07/25 14:55:55;;;;;;;21.03;13.03;;;;;;;24.47;61.09;98756.53;261577;1092;115428;-67
2021/07/25 15:01:12;;;;;;;19.13;13.60;;;;;;;24.46;61.15;98747.54;261512;1092;115374;-67
2021/07/25 15:06:27;;;;;;;17.10;13.28;;;;;;;24.46;61.24;98742.09;261248;1092;115729;-68
2021/07/25 15:11:34;;;;;;;20.60;13.73;;;;;;;24.46;61.35;98742.09;261976;1092;115012;-68
2021/07/25 15:16:42;;;;;;;19.83;14.60;;;;;;;24.45;61.51;98731.39;261576;1092;114746;-68
2021/07/25 15:21:47;;;;;;;15.73;11.50;;;;;;;24.44;61.60;98733.27;261689;1093;114989;-68
2021/07/25 15:26:51;;;;;;;16.55;12.15;;;;;;;24.44;61.49;98726.98;263672;1092;115535;-68
2021/07/25 15:31:57;;;;;;;18.17;13.33;;;;;;;24.45;61.93;98720.51;263623;1092;115906;-67
2021/07/25 15:37:00;;;;;;;19.15;13.15;;;;;;;24.45;61.80;98715.91;263759;1092;116760;-69
2021/07/25 15:42:04;;;;;;;18.83;12.75;;;;;;;24.45;61.72;98717.78;263678;1091;115635;-68
2021/07/25 15:47:08;;;;;;;15.83;12.03;;;;;;;24.42;61.48;98701.84;263637;1092;116111;-69
2021/07/25 15:52:11;;;;;;;27.17;20.50;;;;;;;24.38;61.17;98692.36;263670;1091;115339;-67
2021/07/25 15:57:15;;;;;;;273.43;227.83;;;;;;;24.33;61.00;98686.66;263668;1092;115344;-68
2021/07/25 16:02:18;;;;;;;47.90;27.98;;;;;;;24.31;60.78;98678.68;263663;1093;115918;-68
2021/07/25 16:07:22;;;;;;;157.68;124.25;;;;;;;24.27;60.29;98678.22;263276;1092;115779;-68
2021/07/25 16:12:26;;;;;;;;;;;;;;;24.24;60.15;98667.73;263658;1093;115695;-68
2021/07/25 16:17:31;;;;;;;17.73;11.90;;;;;;;24.20;60.03;98673.75;263829;1093;102025;-68
2021/07/25 16:22:34;;;;;;;18.30;11.30;;;;;;;24.18;59.81;98673.09;263702;1092;115195;-68
2021/07/25 16:27:38;;;;;;;13.50;10.68;;;;;;;24.16;59.93;98669.73;263270;1092;115792;-68
2021/07/25 16:32:42;;;;;;;11.00;7.70;;;;;;;24.17;59.59;98655.09;263636;1092;115205;-68
2021/07/25 16:37:45;;;;;;;13.10;9.63;;;;;;;24.17;59.32;98660.53;263810;1091;115431;-68
2021/07/25 16:42:49;;;;;;;11.98;8.10;;;;;;;24.15;59.07;98662.59;263697;1092;115375;-69
2021/07/25 16:47:53;;;;;;;11.38;8.00;;;;;;;24.16;59.28;98656.98;263749;1092;116322;-68
2021/07/25 16:52:57;;;;;;;12.40;8.13;;;;;;;24.17;58.91;98646.94;263099;1092;115439;-69
2021/07/25 16:58:09;;;;;;;14.27;7.67;;;;;;;24.17;59.02;98644.22;261838;1091;115416;-68
2021/07/25 17:03:13;;;;;;;16.83;8.80;;;;;;;24.17;59.03;98636.06;262070;1092;114839;-68
2021/07/25 17:08:21;;;;;;;9.23;7.27;;;;;;;24.19;59.01;98636.72;261454;1092;117058;-68
2021/07/25 17:13:30;;;;;;;12.10;7.10;;;;;;;24.19;58.91;98637.56;261760;1092;114614;-68
2021/07/25 17:18:43;;;;;;;136.30;100.87;;;;;;;24.16;58.52;98626.23;261860;1092;114509;-68
2021/07/25 17:23:53;;;;;;;59.23;45.67;;;;;;;24.14;58.53;98631.00;261689;1093;115787;-67
2021/07/25 17:28:59;;;;;;;37.17;28.13;;;;;;;24.09;58.46;98623.43;261916;1092;114853;-68
2021/07/25 17:34:17;;;;;;;14.43;11.90;;;;;;;24.08;58.20;98627.16;262035;1092;114912;-67
2021/07/25 17:39:24;;;;;;;182.63;146.80;;;;;;;24.03;58.19;98635.91;261596;1092;116347;-69
2021/07/25 17:44:45;;;;;;;41.43;35.57;;;;;;;23.97;58.26;98630.39;261713;1093;115486;-67
2021/07/25 17:49:54;;;;;;;20.57;16.03;;;;;;;23.87;57.96;98627.13;263130;1092;115682;-69
2021/07/25 17:54:58;;;;;;;173.88;141.48;;;;;;;23.76;58.09;98623.87;262672;1092;115279;-70
2021/07/25 18:00:03;;;;;;;19.23;12.15;;;;;;;23.65;57.88;98616.17;263658;1092;115624;-68
2021/07/25 18:05:14;;;;;;;10.13;7.67;;;;;;;23.49;57.78;98605.50;263768;1092;115725;-70
2021/07/25 18:10:20;;;;;;;10.88;6.83;;;;;;;23.33;57.80;98603.81;263805;1092;115514;-69
2021/07/25 18:15:24;;;;;;;10.93;7.17;;;;;;;23.21;58.04;98608.88;263642;1093;114992;-69
2021/07/25 18:20:32;;;;;;;11.63;7.10;;;;;;;23.07;57.85;98607.84;263619;1092;115116;-69
2021/07/25 18:25:37;;;;;;;;;;;;;;;22.96;58.11;98605.59;263394;1092;115613;-70
2021/07/25 18:30:42;;;;;;;10.98;7.63;;;;;;;22.83;57.94;98608.91;263798;1092;101912;-70
2021/07/25 18:35:46;;;;;;;11.23;7.33;;;;;;;22.76;58.15;98613.38;263222;1092;115214;-69
2021/07/25 18:41:06;;;;;;;10.03;7.43;;;;;;;22.67;58.28;98619.89;262679;1093;114784;-68
2021/07/25 18:46:29;;;;;;;9.23;6.67;;;;;;;22.59;58.30;98618.11;262733;1093;207640;-68
2021/07/25 18:51:35;;;;;;;13.63;7.40;;;;;;;22.57;58.45;98622.02;263352;1092;114789;-69
2021/07/25 18:56:41;;;;;;;9.03;7.33;;;;;;;22.52;57.89;98622.58;263855;1093;116144;-70
2021/07/25 19:01:45;;;;;;;10.30;7.40;;;;;;;22.48;58.70;98617.67;262819;1093;115277;-71
2021/07/25 19:06:52;;;;;;;8.97;7.43;;;;;;;22.46;58.42;98638.73;263140;1093;114704;-68
2021/07/25 19:11:57;;;;;;;11.73;6.73;;;;;;;22.43;58.89;98650.77;262267;1092;115783;-70
2021/07/25 19:17:01;;;;;;;9.53;7.58;;;;;;;;;;263553;1092;114841;-69
2021/07/25 19:22:05;;;;;;;10.68;8.00;;;;;;;22.30;59.10;98651.36;263584;1092;101316;-69
2021/07/25 19:27:09;;;;;;;13.75;7.98;;;;;;;22.24;58.93;98660.20;263733;1093;115347;-71
2021/07/25 19:32:12;;;;;;;10.68;7.08;;;;;;;22.18;59.28;98652.78;263823;1093;115224;-72
2021/07/25 19:37:16;;;;;;;11.78;7.08;;;;;;;22.13;59.27;98658.72;263737;1093;115278;-74
2021/07/25 19:42:22;;;;;;;10.80;7.23;;;;;;;22.11;59.17;98654.48;262996;1092;115134;-70
2021/07/25 19:47:26;;;;;;;11.70;8.05;;;;;;;22.13;59.46;98649.75;263760;1093;115949;-70
2021/07/25 19:52:32;;;;;;;12.40;7.53;;;;;;;22.11;59.72;98646.36;263814;1092;115245;-73
2021/07/25 19:57:51;;;;;;;12.17;7.57;;;;;;;22.09;59.46;98643.00;263788;1092;115241;-72
2021/07/25 20:03:10;;;;;;;10.73;8.00;;;;;;;22.06;59.57;98629.80;263779;1091;115333;-70
2021/07/25 20:08:17;;;;;;;11.45;7.70;;;;;;;22.04;60.04;98623.70;263617;1092;114760;-74
2021/07/25 20:13:21;;;;;;;12.63;8.60;;;;;;;22.00;60.08;98622.38;263788;1092;115011;-70
2021/07/25 20:18:25;;;;;;;11.35;8.55;;;;;;;21.94;59.95;98630.22;262010;1091;116716;-69
2021/07/25 20:23:29;;;;;;;12.90;8.60;;;;;;;21.91;60.06;98630.56;263807;1092;114594;-69
2021/07/25 20:28:32;;;;;;;15.88;7.38;;;;;;;21.86;60.23;98632.11;263646;1093;114979;-70
2021/07/25 20:33:39;;;;;;;9.15;7.28;;;;;;;21.84;60.47;98632.30;263643;1092;116030;-68
2021/07/25 20:38:43;;;;;;;9.13;7.83;;;;;;;21.84;60.75;98624.17;263699;1092;115324;-69
2021/07/25 20:43:48;;;;;;;10.53;8.33;;;;;;;21.86;60.62;98632.11;262519;1091;115340;-68
2021/07/25 20:48:53;;;;;;;10.23;8.03;;;;;;;21.82;60.71;98628.07;263136;1093;115987;-69
2021/07/25 20:54:06;;;;;;;10.13;8.10;;;;;;;21.77;60.84;98636.70;263796;1092;114942;-69
2021/07/25 20:59:31;;;;;;;11.00;8.50;;;;;;;21.74;61.07;98634.38;262286;1092;114839;-68
2021/07/25 21:04:53;;;;;;;12.27;8.60;;;;;;;21.70;61.73;98623.05;262796;1093;115332;-70
2021/07/25 21:10:13;;;;;;;14.73;8.73;;;;;;;21.66;61.33;98626.27;262804;1093;114925;-70
2021/07/25 21:15:19;;;;;;;10.07;7.87;;;;;;;21.64;61.38;98617.50;263660;1091;114674;-69
2021/07/25 21:20:24;;;;;;;11.33;7.60;;;;;;;21.67;61.47;98611.70;263818;1093;115274;-68
2021/07/25 21:25:28;;;;;;;;;;;;;;;21.72;61.44;98612.03;263729;1092;115026;-70
2021/07/25 21:30:33;;;;;;;13.53;8.50;;;;;;;21.75;61.20;98605.42;263493;1092;102921;-73
2021/07/25 21:35:38;;;;;;;12.57;8.00;;;;;;;21.75;61.44;98600.84;263824;1090;115799;-72
2021/07/25 21:40:42;;;;;;;10.33;8.57;;;;;;;21.76;61.38;98596.27;263718;1093;115067;-70
2021/07/25 21:45:45;;;;;;;12.18;8.50;;;;;;;21.77;61.53;98584.40;263344;1092;114989;-68
2021/07/25 21:50:49;;;;;;;9.38;8.38;;;;;;;21.76;61.54;98578.14;263525;1092;115179;-70
2021/07/25 21:55:54;;;;;;;11.33;8.40;;;;;;;21.74;61.37;98577.50;263480;1092;116210;-67
2021/07/25 22:01:04;;;;;;;11.45;8.05;;;;;;;21.73;61.81;98578.49;263583;1093;115512;-72
2021/07/25 22:06:15;;;;;;;11.17;7.60;;;;;;;21.74;61.79;98566.66;261739;1092;115259;-71
2021/07/25 22:11:19;;;;;;;14.57;8.33;;;;;;;21.75;61.78;98554.80;261846;1092;114611;-70
2021/07/25 22:16:23;;;;;;;21.10;10.20;;;;;;;21.77;61.87;98550.02;261557;1092;114777;-69
2021/07/25 22:21:31;;;;;;;9.77;7.80;;;;;;;21.78;61.90;98548.19;261756;1093;115192;-71
2021/07/25 22:26:35;;;;;;;11.38;8.95;;;;;;;21.76;61.91;98545.64;263931;1092;115124;-69
2021/07/25 22:31:39;;;;;;;11.75;8.30;;;;;;;21.75;61.94;98538.55;263669;1093;114958;-71
2021/07/25 22:36:45;;;;;;;13.43;9.23;;;;;;;21.74;61.95;98534.16;263768;1092;116263;-71
2021/07/25 22:41:52;;;;;;;11.80;8.17;;;;;;;21.70;61.92;98540.92;263405;1093;115993;-69
2021/07/25 22:46:56;;;;;;;10.77;7.73;;;;;;;21.68;61.91;98561.95;263655;1092;114969;-68
2021/07/25 22:52:06;;;;;;;9.18;7.48;;;;;;;21.71;62.00;98570.56;263803;1092;115275;-70
2021/07/25 22:57:10;;;;;;;11.33;8.10;;;;;;;21.76;62.10;98561.89;263821;1093;114794;-69
2021/07/25 23:02:15;;;;;;;10.88;8.30;;;;;;;21.80;62.08;98562.38;263852;1093;114720;-70
2021/07/25 23:07:19;;;;;;;15.28;8.80;;;;;;;21.78;62.36;98557.16;263780;1093;114937;-70
2021/07/25 23:12:22;;;;;;;13.68;8.93;;;;;;;21.80;62.45;98541.54;263571;1093;115275;-68
2021/07/25 23:17:26;;;;;;;15.20;8.58;;;;;;;21.79;62.46;98541.73;263835;1092;115517;-67
2021/07/25 23:22:30;;;;;;;10.93;8.00;;;;;;;21.72;62.42;98584.95;263454;1093;115352;-69